createdAt,value
2018-07-02T00:02:24.606Z,14.96
2018-07-02T00:04:51.663Z,15.08
2018-07-02T00:07:23.665Z,15.04
2018-07-02T00:09:51.342Z,15.01
2018-07-02T00:12:19.309Z,15.10
2018-07-02T00:14:47.380Z,15.08
2018-07-02T00:17:14.462Z,14.94
2018-07-02T00:19:41.568Z,14.82
2018-07-02T00:22:08.812Z,14.69
2018-07-02T00:24:35.891Z,14.71
2018-07-02T00:27:02.948Z,14.72
2018-07-02T00:29:29.978Z,14.67
2018-07-02T00:31:57.025Z,14.54
2018-07-02T00:34:24.277Z,14.61
2018-07-02T00:36:51.341Z,14.62
2018-07-02T00:39:18.389Z,14.67
2018-07-02T00:41:45.388Z,14.73
2018-07-02T00:44:12.766Z,14.40
2018-07-02T00:46:39.813Z,14.45
2018-07-02T00:49:07.370Z,14.39
2018-07-02T00:51:34.428Z,14.33
2018-07-02T00:54:01.873Z,14.38
2018-07-02T00:56:28.906Z,14.06
2018-07-02T00:58:55.938Z,13.98
2018-07-02T01:01:25.671Z,13.85
2018-07-02T01:03:52.937Z,13.99
2018-07-02T01:06:19.979Z,13.79
2018-07-02T01:08:47.029Z,13.57
2018-07-02T01:11:14.096Z,13.70
2018-07-02T01:13:41.177Z,13.82
2018-07-02T01:16:08.201Z,13.97
2018-07-02T01:18:35.359Z,13.98
2018-07-02T01:21:02.417Z,13.85
2018-07-02T01:23:29.437Z,13.70
2018-07-02T01:25:56.469Z,13.87
2018-07-02T01:28:23.485Z,13.52
2018-07-02T01:30:50.556Z,13.68
2018-07-02T01:33:17.581Z,13.49
2018-07-02T01:35:44.642Z,13.59
2018-07-02T01:38:11.677Z,13.15
2018-07-02T01:40:38.718Z,13.07
2018-07-02T01:43:05.764Z,13.23
2018-07-02T01:45:32.780Z,13.26
2018-07-02T01:47:59.860Z,13.06
2018-07-02T01:50:26.894Z,13.11
2018-07-02T01:52:53.922Z,13.12
2018-07-02T01:55:21.144Z,12.92
2018-07-02T01:57:48.166Z,12.93
2018-07-02T02:00:15.208Z,12.67
2018-07-02T02:02:42.276Z,12.70
2018-07-02T02:05:09.324Z,12.98
2018-07-02T02:07:36.338Z,12.94
2018-07-02T02:10:03.531Z,12.78
2018-07-02T02:12:30.566Z,12.97
2018-07-02T02:14:57.599Z,13.01
2018-07-02T02:17:24.638Z,13.00
2018-07-02T02:19:51.660Z,12.81
2018-07-02T02:22:18.844Z,12.83
2018-07-02T02:24:45.903Z,13.04
2018-07-02T02:27:12.926Z,12.80
2018-07-02T02:29:39.945Z,12.93
2018-07-02T02:32:07.005Z,12.99
2018-07-02T02:34:34.078Z,12.66
2018-07-02T02:37:01.112Z,12.72
2018-07-02T02:39:28.162Z,12.81
2018-07-02T02:41:55.193Z,12.46
2018-07-02T02:44:22.209Z,12.51
2018-07-02T02:46:49.218Z,12.47
2018-07-02T02:49:16.219Z,12.34
2018-07-02T02:51:43.265Z,12.35
2018-07-02T02:54:10.294Z,12.53
2018-07-02T02:56:37.300Z,12.52
2018-07-02T02:59:04.369Z,12.59
2018-07-02T03:01:31.376Z,12.57
2018-07-02T03:03:58.440Z,12.28
2018-07-02T03:06:25.468Z,12.45
2018-07-02T03:08:52.518Z,12.41
2018-07-02T03:11:19.545Z,12.19
2018-07-02T03:13:46.573Z,12.34
2018-07-02T03:16:13.630Z,12.63
2018-07-02T03:18:40.689Z,12.69
2018-07-02T03:21:07.778Z,12.08
2018-07-02T03:23:34.795Z,11.85
2018-07-02T03:26:01.809Z,12.06
2018-07-02T03:28:28.836Z,11.77
2018-07-02T03:30:55.863Z,11.93
2018-07-02T03:33:22.885Z,12.10
2018-07-02T03:35:49.910Z,12.15
2018-07-02T03:38:16.953Z,11.77
2018-07-02T03:40:43.953Z,11.80
2018-07-02T03:43:10.970Z,11.74
2018-07-02T03:45:38.026Z,12.05
2018-07-02T03:48:05.044Z,12.26
2018-07-02T03:50:32.075Z,12.36
2018-07-02T03:52:59.101Z,12.30
2018-07-02T03:55:26.237Z,12.20
2018-07-02T03:57:53.240Z,12.22
2018-07-02T04:00:21.142Z,12.49
2018-07-02T04:02:49.692Z,12.40
2018-07-02T04:05:18.479Z,12.11
2018-07-02T04:07:45.635Z,12.23
2018-07-02T04:10:14.272Z,12.20
2018-07-02T04:12:41.354Z,12.50
2018-07-02T04:15:08.381Z,12.53
2018-07-02T04:17:35.413Z,12.53
2018-07-02T04:20:02.460Z,12.55
2018-07-02T04:22:29.478Z,12.87
2018-07-02T04:24:56.509Z,12.85
2018-07-02T04:27:23.526Z,12.93
2018-07-02T04:29:50.579Z,13.08
2018-07-02T04:32:17.600Z,13.18
2018-07-02T04:34:44.617Z,13.24
2018-07-02T04:37:11.635Z,13.40
2018-07-02T04:39:38.650Z,13.43
2018-07-02T04:42:05.700Z,13.51
2018-07-02T04:44:32.703Z,13.66
2018-07-02T04:47:00.050Z,13.69
2018-07-02T04:49:27.065Z,13.75
2018-07-02T04:51:54.137Z,13.84
2018-07-02T04:54:21.307Z,13.87
2018-07-02T04:56:48.334Z,13.80
2018-07-02T04:59:15.353Z,13.88
2018-07-02T05:01:42.401Z,13.97
2018-07-02T05:04:09.781Z,14.06
2018-07-02T05:06:36.792Z,14.06
2018-07-02T05:09:06.138Z,14.23
2018-07-02T05:11:33.161Z,14.21
2018-07-02T05:14:00.179Z,14.15
2018-07-02T05:16:27.213Z,14.28
2018-07-02T05:18:54.227Z,14.32
2018-07-02T05:21:21.328Z,14.37
2018-07-02T05:23:48.349Z,14.36
2018-07-02T05:26:15.440Z,14.35
2018-07-02T05:28:42.464Z,14.49
2018-07-02T05:31:09.481Z,14.51
2018-07-02T05:33:36.496Z,14.63
2018-07-02T05:36:03.761Z,14.63
2018-07-02T05:38:30.786Z,14.69
2018-07-02T05:40:57.810Z,14.71
2018-07-02T05:43:24.851Z,14.83
2018-07-02T05:45:51.870Z,14.89
2018-07-02T05:48:18.893Z,15.15
2018-07-02T05:50:45.930Z,15.35
2018-07-02T05:53:13.071Z,15.44
2018-07-02T05:55:40.028Z,15.48
2018-07-02T05:58:07.057Z,15.68
2018-07-02T06:00:34.122Z,15.81
2018-07-02T06:03:01.107Z,15.90
2018-07-02T06:05:28.147Z,15.94
2018-07-02T06:07:55.211Z,16.08
2018-07-02T06:10:22.350Z,15.98
2018-07-02T06:12:49.377Z,16.01
2018-07-02T06:17:50.301Z,16.06
2018-07-02T06:20:17.312Z,16.18
2018-07-02T06:22:44.409Z,16.35
2018-07-02T06:25:11.429Z,16.35
2018-07-02T06:27:38.466Z,16.42
2018-07-02T06:30:05.635Z,16.47
2018-07-02T06:32:32.653Z,16.51
2018-07-02T06:34:59.645Z,16.68
2018-07-02T06:37:26.992Z,16.73
2018-07-02T06:39:54.005Z,16.92
2018-07-02T06:42:21.015Z,16.97
2018-07-02T06:44:48.224Z,17.06
2018-07-02T06:47:15.244Z,17.09
2018-07-02T06:49:42.242Z,17.16
2018-07-02T06:52:09.281Z,17.33
2018-07-02T06:54:36.285Z,17.41
2018-07-02T06:57:03.404Z,17.46
2018-07-02T06:59:30.404Z,17.58
2018-07-02T07:01:57.461Z,17.64
2018-07-02T07:04:24.521Z,17.71
2018-07-02T07:06:51.557Z,17.91
2018-07-02T07:09:18.665Z,18.03
2018-07-02T07:11:45.703Z,17.99
2018-07-02T07:14:12.749Z,18.04
2018-07-02T07:16:39.784Z,18.10
2018-07-02T07:19:06.829Z,18.30
2018-07-02T07:21:33.925Z,18.33
2018-07-02T07:24:01.008Z,18.17
2018-07-02T07:26:28.049Z,18.36
2018-07-02T07:28:55.112Z,18.47
2018-07-02T07:31:22.770Z,18.45
2018-07-02T07:33:49.994Z,18.49
2018-07-02T07:36:17.599Z,18.53
2018-07-02T07:38:44.625Z,18.61
2018-07-02T07:41:11.647Z,18.62
2018-07-02T07:43:38.703Z,18.65
2018-07-02T07:46:05.785Z,18.78
2018-07-02T07:48:32.821Z,18.84
2018-07-02T07:50:59.818Z,18.92
2018-07-02T07:53:27.344Z,19.03
2018-07-02T07:55:54.642Z,19.13
2018-07-02T07:58:21.667Z,19.20
2018-07-02T08:00:48.713Z,19.31
2018-07-02T08:03:15.780Z,19.45
2018-07-02T08:05:42.965Z,19.37
2018-07-02T08:08:09.997Z,19.29
2018-07-02T08:10:37.075Z,19.55
2018-07-02T08:13:04.244Z,19.65
2018-07-02T08:15:31.281Z,19.75
2018-07-02T08:17:58.320Z,19.81
2018-07-02T08:20:25.341Z,19.94
2018-07-02T08:22:52.721Z,20.05
2018-07-02T08:25:19.765Z,20.02
2018-07-02T08:27:46.778Z,20.13
2018-07-02T08:30:13.780Z,20.24
2018-07-02T08:32:40.793Z,20.20
2018-07-02T08:35:07.980Z,20.21
2018-07-02T08:37:35.031Z,20.28
2018-07-02T08:40:02.071Z,20.38
2018-07-02T08:42:29.093Z,20.37
2018-07-02T08:44:56.131Z,20.36
2018-07-02T08:47:23.146Z,20.50
2018-07-02T08:49:50.189Z,20.58
2018-07-02T08:52:17.212Z,20.74
2018-07-02T08:54:44.252Z,20.82
2018-07-02T08:57:11.284Z,20.83
2018-07-02T08:59:38.314Z,21.03
2018-07-02T09:02:05.596Z,21.08
2018-07-02T09:04:32.599Z,21.19
2018-07-02T09:06:59.613Z,21.16
2018-07-02T09:09:26.657Z,21.18
2018-07-02T09:11:53.675Z,21.08
2018-07-02T09:14:20.724Z,21.24
2018-07-02T09:16:47.789Z,21.35
2018-07-02T09:19:14.893Z,21.28
2018-07-02T09:21:41.831Z,21.46
2018-07-02T09:24:08.886Z,21.45
2018-07-02T09:26:35.924Z,21.61
2018-07-02T09:29:02.981Z,21.72
2018-07-02T09:31:30.018Z,21.83
2018-07-02T09:33:57.049Z,21.92
2018-07-02T09:36:24.068Z,22.00
2018-07-02T09:38:51.356Z,21.86
2018-07-02T09:41:18.402Z,21.70
2018-07-02T09:43:45.450Z,21.43
2018-07-02T09:46:12.799Z,21.40
2018-07-02T09:48:42.021Z,21.65
2018-07-02T09:51:11.334Z,21.90
2018-07-02T09:53:40.852Z,22.09
2018-07-02T09:56:10.007Z,22.24
2018-07-02T09:58:39.072Z,22.46
2018-07-02T10:01:08.511Z,22.62
2018-07-02T10:03:37.484Z,22.70
2018-07-02T10:06:06.912Z,22.84
2018-07-02T10:08:36.473Z,22.77
2018-07-02T10:11:05.847Z,22.76
2018-07-02T10:13:34.958Z,22.59
2018-07-02T10:16:04.063Z,22.21
2018-07-02T10:18:33.328Z,21.95
2018-07-02T10:21:02.587Z,22.22
2018-07-02T10:23:37.331Z,22.50
2018-07-02T10:26:01.436Z,22.24
2018-07-02T10:28:31.189Z,22.25
2018-07-02T10:31:00.575Z,22.42
2018-07-02T10:33:29.876Z,22.76
2018-07-02T10:35:59.122Z,23.02
2018-07-02T10:38:31.606Z,22.98
2018-07-02T10:41:00.849Z,23.18
2018-07-02T10:43:30.255Z,22.95
2018-07-02T10:45:59.542Z,22.90
2018-07-02T10:48:28.781Z,22.72
2018-07-02T10:50:58.041Z,22.65
2018-07-02T10:53:27.262Z,23.15
2018-07-02T10:55:56.371Z,23.42
2018-07-02T10:58:23.503Z,23.56
2018-07-02T11:00:50.566Z,23.75
2018-07-02T11:03:17.660Z,23.68
2018-07-02T11:05:44.692Z,23.61
2018-07-02T11:08:11.699Z,23.66
2018-07-02T11:10:38.710Z,23.89
2018-07-02T11:13:10.105Z,23.80
2018-07-02T11:15:37.846Z,23.37
2018-07-02T11:18:05.324Z,23.20
2018-07-02T11:20:32.570Z,23.24
2018-07-02T11:22:59.572Z,23.00
2018-07-02T11:25:26.609Z,22.73
2018-07-02T11:27:53.634Z,22.52
2018-07-02T11:30:20.749Z,22.91
2018-07-02T11:32:47.772Z,22.82
2018-07-02T11:35:14.815Z,22.96
2018-07-02T11:37:41.828Z,23.28
2018-07-02T11:40:08.848Z,23.35
2018-07-02T11:42:35.890Z,23.52
2018-07-02T11:45:03.014Z,23.55
2018-07-02T11:47:30.039Z,23.35
2018-07-02T11:49:57.109Z,23.46
2018-07-02T11:52:24.182Z,23.38
2018-07-02T11:54:51.210Z,23.07
2018-07-02T11:57:18.613Z,22.98
2018-07-02T11:59:45.616Z,22.89
2018-07-02T12:02:12.637Z,22.87
2018-07-02T12:04:39.724Z,23.25
2018-07-02T12:07:06.766Z,23.67
2018-07-02T12:09:34.147Z,23.69
2018-07-02T12:12:01.309Z,24.01
2018-07-02T12:14:28.409Z,23.91
2018-07-02T12:16:56.119Z,24.03
2018-07-02T12:19:23.233Z,23.78
2018-07-02T12:21:50.598Z,23.64
2018-07-02T12:24:17.991Z,23.93
2018-07-02T12:26:45.326Z,24.30
2018-07-02T12:29:12.491Z,24.37
2018-07-02T12:31:39.494Z,24.68
2018-07-02T12:34:06.689Z,24.67
2018-07-02T12:36:33.710Z,24.34
2018-07-02T12:39:00.710Z,24.06
2018-07-02T12:41:27.728Z,23.66
2018-07-02T12:43:54.718Z,23.57
2018-07-02T12:46:21.720Z,23.72
2018-07-02T12:48:48.767Z,24.53
2018-07-02T12:51:15.796Z,24.85
2018-07-02T12:53:43.128Z,25.16
2018-07-02T12:56:10.154Z,25.79
2018-07-02T12:58:37.174Z,26.08
2018-07-02T13:01:04.248Z,26.17
2018-07-02T13:03:34.247Z,26.30
2018-07-02T13:06:01.258Z,26.34
2018-07-02T13:08:28.276Z,26.67
2018-07-02T13:10:55.303Z,25.76
2018-07-02T13:13:22.325Z,24.88
2018-07-02T13:15:49.328Z,25.24
2018-07-02T13:18:16.361Z,26.19
2018-07-02T13:20:43.489Z,26.01
2018-07-02T13:23:10.493Z,25.67
2018-07-02T13:25:37.511Z,25.65
2018-07-02T13:28:04.590Z,25.34
2018-07-02T13:30:31.654Z,24.94
2018-07-02T13:32:58.664Z,25.21
2018-07-02T13:35:25.692Z,25.70
2018-07-02T13:37:52.746Z,26.04
2018-07-02T13:40:19.802Z,26.73
2018-07-02T13:42:46.790Z,26.09
2018-07-02T13:45:13.809Z,26.26
2018-07-02T13:47:40.820Z,26.23
2018-07-02T13:50:08.181Z,26.51
2018-07-02T13:52:35.206Z,27.09
2018-07-02T13:55:02.266Z,27.00
2018-07-02T13:57:29.319Z,27.17
2018-07-02T13:59:56.378Z,27.28
2018-07-02T14:02:23.453Z,26.63
2018-07-02T14:04:50.490Z,26.47
2018-07-02T14:07:17.497Z,26.93
2018-07-02T14:09:44.512Z,27.50
2018-07-02T14:12:11.589Z,28.18
2018-07-02T14:14:38.629Z,28.37
2018-07-02T14:17:05.671Z,27.38
2018-07-02T14:19:32.728Z,28.34
2018-07-02T14:21:59.810Z,28.11
2018-07-02T14:24:26.840Z,28.44
2018-07-02T14:26:53.865Z,28.25
2018-07-02T14:29:20.883Z,28.38
2018-07-02T14:31:47.977Z,28.18
2018-07-02T14:34:21.812Z,28.00
2018-07-02T14:36:49.038Z,28.59
2018-07-02T14:39:16.099Z,28.69
2018-07-02T14:41:43.113Z,28.50
2018-07-02T14:44:10.185Z,28.28
2018-07-02T14:46:37.232Z,28.62
2018-07-02T14:49:04.601Z,28.33
2018-07-02T14:51:33.221Z,27.80
2018-07-02T14:54:00.297Z,27.85
2018-07-02T14:56:28.002Z,28.56
2018-07-02T14:58:55.059Z,28.71
2018-07-02T15:01:22.111Z,27.96
2018-07-02T15:03:49.185Z,28.10
2018-07-02T15:06:16.195Z,27.79
2018-07-02T15:08:43.244Z,27.08
2018-07-02T15:11:10.293Z,27.27
2018-07-02T15:13:37.373Z,27.39
2018-07-02T15:16:04.458Z,27.26
2018-07-02T15:18:31.506Z,28.03
2018-07-02T15:20:58.565Z,27.52
2018-07-02T15:23:25.683Z,27.73
2018-07-02T15:25:52.932Z,27.71
2018-07-02T15:28:19.964Z,27.18
2018-07-02T15:30:47.200Z,27.24
2018-07-02T15:33:14.228Z,27.12
2018-07-02T15:35:41.348Z,27.60
2018-07-02T15:38:08.370Z,27.48
2018-07-02T15:40:35.973Z,27.14
2018-07-02T15:43:03.057Z,26.82
2018-07-02T15:45:30.097Z,26.87
2018-07-02T15:47:57.713Z,26.86
2018-07-02T15:50:24.749Z,27.38
2018-07-02T15:52:52.169Z,26.93
2018-07-02T15:55:19.315Z,27.14
2018-07-02T15:57:46.365Z,27.25
2018-07-02T16:00:13.896Z,27.38
2018-07-02T16:02:40.961Z,27.25
2018-07-02T16:05:08.006Z,27.41
2018-07-02T16:07:42.869Z,27.20
2018-07-02T16:10:09.910Z,27.86
2018-07-02T16:12:37.950Z,27.66
2018-07-02T16:15:05.035Z,27.38
2018-07-02T16:17:32.414Z,27.05
2018-07-02T16:19:59.820Z,26.86
2018-07-02T16:22:27.123Z,26.74
2018-07-02T16:24:54.159Z,26.70
2018-07-02T16:27:22.251Z,26.84
2018-07-02T16:29:49.918Z,26.85
2018-07-02T16:32:17.542Z,26.15
2018-07-02T16:34:44.973Z,25.80
2018-07-02T16:37:12.093Z,26.48
2018-07-02T16:39:39.684Z,26.23
2018-07-02T16:42:06.750Z,26.17
2018-07-02T16:44:34.125Z,26.21
2018-07-02T16:47:01.195Z,26.17
2018-07-02T16:49:28.225Z,26.24
2018-07-02T16:51:55.313Z,25.77
2018-07-02T16:54:22.789Z,25.72
2018-07-02T16:56:49.808Z,25.66
2018-07-02T16:59:16.859Z,25.40
2018-07-02T17:01:44.401Z,25.29
2018-07-02T17:04:11.444Z,25.24
2018-07-02T17:06:38.501Z,25.03
2018-07-02T17:09:09.203Z,24.96
2018-07-02T17:11:36.550Z,24.76
2018-07-02T17:14:03.650Z,24.50
2018-07-02T17:16:30.857Z,24.59
2018-07-02T17:18:58.470Z,24.70
2018-07-02T17:21:25.698Z,24.44
2018-07-02T17:23:52.844Z,24.44
2018-07-02T17:26:19.889Z,24.15
2018-07-02T17:28:46.954Z,23.99
2018-07-02T17:31:14.024Z,24.09
2018-07-02T17:33:41.034Z,23.99
2018-07-02T17:36:08.076Z,24.09
2018-07-02T17:38:35.104Z,23.90
2018-07-02T17:41:02.177Z,23.81
2018-07-02T17:43:29.210Z,23.87
2018-07-02T17:45:56.546Z,23.67
2018-07-02T17:48:23.584Z,23.78
2018-07-02T17:50:50.641Z,23.62
2018-07-02T17:53:17.809Z,23.56
2018-07-02T17:55:44.855Z,23.58
2018-07-02T17:58:11.935Z,23.37
2018-07-02T18:00:38.981Z,23.05
2018-07-02T18:03:06.051Z,23.01
2018-07-02T18:05:33.109Z,22.87
2018-07-02T18:08:07.270Z,22.83
2018-07-02T18:10:34.371Z,22.69
2018-07-02T18:13:01.369Z,22.60
2018-07-02T18:15:28.725Z,22.69
2018-07-02T18:17:55.760Z,22.59
2018-07-02T18:20:22.776Z,22.57
2018-07-02T18:22:49.984Z,22.55
2018-07-02T18:25:17.023Z,22.45
2018-07-02T18:27:44.069Z,22.38
2018-07-02T18:30:11.124Z,22.31
2018-07-02T18:32:38.177Z,22.15
2018-07-02T18:35:05.244Z,22.05
2018-07-02T18:37:32.276Z,21.97
2018-07-02T18:39:59.330Z,21.92
2018-07-02T18:42:26.393Z,21.88
2018-07-02T18:44:53.417Z,21.91
2018-07-02T18:47:20.466Z,21.87
2018-07-02T18:49:47.490Z,21.83
2018-07-02T18:52:14.529Z,21.78
2018-07-02T18:54:41.585Z,21.71
2018-07-02T18:57:08.635Z,21.68
2018-07-02T18:59:35.726Z,21.58
2018-07-02T19:02:02.780Z,21.62
2018-07-02T19:04:29.803Z,21.54
2018-07-02T19:06:56.915Z,21.47
2018-07-02T19:09:23.939Z,21.39
2018-07-02T19:11:50.971Z,21.41
2018-07-02T19:14:18.006Z,21.32
2018-07-02T19:16:45.107Z,21.20
2018-07-02T19:19:12.085Z,21.12
2018-07-02T19:21:39.109Z,21.13
2018-07-02T19:24:06.181Z,21.01
2018-07-02T19:26:33.348Z,20.97
2018-07-02T19:29:00.365Z,20.92
2018-07-02T19:31:27.417Z,20.87
2018-07-02T19:33:54.810Z,20.78
2018-07-02T19:36:21.860Z,20.74
2018-07-02T19:39:24.838Z,20.71
2018-07-02T19:41:51.836Z,20.72
2018-07-02T19:44:18.928Z,20.66
2018-07-02T19:46:45.932Z,20.62
2018-07-02T19:49:12.945Z,20.57
2018-07-02T19:51:39.996Z,20.57
2018-07-02T19:54:07.028Z,20.47
2018-07-02T19:56:34.173Z,20.38
2018-07-02T19:59:01.185Z,20.37
2018-07-02T20:01:28.282Z,20.29
2018-07-02T20:03:55.299Z,20.16
2018-07-02T20:06:22.334Z,20.16
2018-07-02T20:08:49.362Z,20.04
2018-07-02T20:11:16.421Z,20.04
2018-07-02T20:13:43.965Z,19.92
2018-07-02T20:16:10.977Z,19.88
2018-07-02T20:18:38.336Z,19.85
2018-07-02T20:21:05.370Z,19.82
2018-07-02T20:23:32.416Z,19.70
2018-07-02T20:25:59.461Z,19.61
2018-07-02T20:28:26.581Z,19.59
2018-07-02T20:30:53.666Z,19.52
2018-07-02T20:33:20.686Z,19.31
2018-07-02T20:35:47.725Z,19.18
2018-07-02T20:38:14.741Z,19.12
2018-07-02T20:40:41.837Z,19.16
2018-07-02T20:43:08.880Z,19.17
2018-07-02T20:45:35.913Z,19.04
2018-07-02T20:48:09.788Z,19.03
2018-07-02T20:50:36.847Z,18.91
2018-07-02T20:53:03.915Z,18.91
2018-07-02T20:55:31.004Z,18.70
2018-07-02T20:57:58.254Z,18.74
2018-07-02T21:00:29.087Z,18.62
2018-07-02T21:02:56.446Z,18.41
2018-07-02T21:05:23.481Z,18.40
2018-07-02T21:07:50.488Z,18.40
2018-07-02T21:10:17.550Z,18.43
2018-07-02T21:12:44.929Z,18.35
2018-07-02T21:15:11.999Z,18.24
2018-07-02T21:17:39.048Z,18.20
2018-07-02T21:20:06.153Z,18.14
2018-07-02T21:22:33.200Z,18.17
2018-07-02T21:25:00.252Z,17.96
2018-07-02T21:27:27.290Z,18.07
2018-07-02T21:29:54.330Z,18.09
2018-07-02T21:32:21.500Z,18.00
2018-07-02T21:34:48.562Z,17.87
2018-07-02T21:37:15.613Z,17.62
2018-07-02T21:39:42.661Z,17.55
2018-07-02T21:42:09.704Z,17.59
2018-07-02T21:44:36.717Z,17.39
2018-07-02T21:47:03.816Z,17.38
2018-07-02T21:49:31.087Z,17.20
2018-07-02T21:51:58.133Z,17.11
2018-07-02T21:54:32.041Z,17.01
2018-07-02T21:56:59.086Z,17.04
2018-07-02T21:59:26.146Z,17.15
2018-07-02T22:01:53.446Z,17.13
2018-07-02T22:04:20.518Z,17.01
2018-07-02T22:06:47.541Z,16.91
2018-07-02T22:09:14.595Z,16.83
2018-07-02T22:11:41.634Z,16.83
2018-07-02T22:14:08.669Z,16.91
2018-07-02T22:16:35.721Z,16.77
2018-07-02T22:19:02.760Z,16.68
2018-07-02T22:21:29.825Z,16.68
2018-07-02T22:23:56.833Z,16.60
2018-07-02T22:26:23.860Z,16.47
2018-07-02T22:28:50.900Z,16.35
2018-07-02T22:31:17.942Z,16.31
2018-07-02T22:33:44.989Z,16.35
2018-07-02T22:36:12.056Z,16.33
2018-07-02T22:38:39.112Z,16.29
2018-07-02T22:41:06.264Z,16.18
2018-07-02T22:43:33.379Z,16.28
2018-07-02T22:46:00.325Z,16.23
2018-07-02T22:48:27.405Z,16.28
2018-07-02T22:50:54.455Z,16.02
2018-07-02T22:53:21.497Z,15.87
2018-07-02T22:56:02.206Z,15.95
2018-07-02T22:58:29.265Z,15.84
2018-07-02T23:00:57.871Z,15.72
2018-07-02T23:03:25.100Z,15.80
2018-07-02T23:05:52.116Z,15.77
2018-07-02T23:08:19.244Z,15.72
2018-07-02T23:10:46.457Z,15.58
2018-07-02T23:13:13.493Z,15.57
2018-07-02T23:15:40.542Z,15.49
2018-07-02T23:18:07.609Z,15.42
2018-07-02T23:20:34.657Z,15.32
2018-07-02T23:23:02.804Z,15.35
2018-07-02T23:25:30.355Z,15.43
2018-07-02T23:27:58.675Z,15.52
2018-07-02T23:30:26.092Z,15.41
2018-07-02T23:32:53.142Z,15.47
2018-07-02T23:35:20.252Z,15.54
2018-07-02T23:37:49.081Z,15.55
2018-07-02T23:40:16.145Z,15.53
2018-07-02T23:42:43.204Z,15.55
2018-07-02T23:45:10.622Z,15.52
2018-07-02T23:47:37.975Z,15.53
2018-07-02T23:50:05.138Z,15.50
2018-07-02T23:52:32.181Z,15.29
2018-07-02T23:54:59.232Z,15.31
2018-07-02T23:57:26.266Z,15.36
2018-07-02T23:59:53.300Z,15.31
